createdAt,value
2022-09-29T00:00:51.627Z,1.15
2022-09-29T00:03:20.907Z,1.10
2022-09-29T00:05:53.034Z,1.08
2022-09-29T00:08:21.887Z,1.10
2022-09-29T00:10:51.492Z,0.90
2022-09-29T00:13:19.946Z,1.08
2022-09-29T00:15:56.794Z,1.00
2022-09-29T00:18:24.981Z,0.90
2022-09-29T00:21:01.007Z,1.30
2022-09-29T00:23:30.144Z,0.90
2022-09-29T00:26:04.687Z,1.20
2022-09-29T00:28:33.612Z,0.93
2022-09-29T00:31:02.736Z,1.00
2022-09-29T00:33:31.670Z,0.95
2022-09-29T00:36:01.642Z,1.00
2022-09-29T00:38:30.431Z,1.05
2022-09-29T00:40:58.850Z,0.90
2022-09-29T00:43:52.152Z,1.10
2022-09-29T00:46:25.375Z,1.20
2022-09-29T00:48:54.583Z,1.27
2022-09-29T00:51:23.149Z,1.00
2022-09-29T00:53:51.233Z,1.05
2022-09-29T00:56:20.802Z,0.80
2022-09-29T00:58:55.711Z,1.05
2022-09-29T01:01:24.376Z,1.17
2022-09-29T01:03:57.721Z,1.10
2022-09-29T01:06:29.244Z,1.30
2022-09-29T01:09:01.743Z,1.25
2022-09-29T01:11:30.973Z,1.40
2022-09-29T01:14:03.823Z,1.08
2022-09-29T01:16:32.352Z,0.90
2022-09-29T01:19:03.022Z,1.33
2022-09-29T01:21:39.002Z,1.40
2022-09-29T01:24:55.459Z,1.10
2022-09-29T01:27:34.646Z,1.30
2022-09-29T01:30:13.564Z,1.25
2022-09-29T01:33:05.283Z,1.10
2022-09-29T01:35:43.972Z,1.17
2022-09-29T01:38:27.089Z,1.30
2022-09-29T01:41:04.158Z,1.40
2022-09-29T01:43:36.406Z,1.45
2022-09-29T01:46:08.117Z,1.45
2022-09-29T01:48:41.187Z,1.40
2022-09-29T01:51:13.905Z,1.58
2022-09-29T01:53:47.620Z,1.38
2022-09-29T01:56:20.430Z,1.50
2022-09-29T01:58:53.111Z,1.67
2022-09-29T02:01:23.540Z,1.42
2022-09-29T02:03:58.307Z,1.60
2022-09-29T02:06:31.163Z,1.42
2022-09-29T02:09:04.964Z,1.50
2022-09-29T02:11:34.577Z,1.27
2022-09-29T02:14:07.248Z,1.40
2022-09-29T02:16:39.755Z,1.55
2022-09-29T02:19:15.185Z,1.67
2022-09-29T02:21:44.068Z,1.50
2022-09-29T02:24:12.909Z,1.27
2022-09-29T02:26:43.031Z,1.90
2022-09-29T02:29:10.911Z,1.63
2022-09-29T02:31:40.262Z,1.50
2022-09-29T02:34:11.471Z,1.60
2022-09-29T02:36:49.391Z,1.77
2022-09-29T02:39:30.630Z,1.52
2022-09-29T02:42:13.842Z,1.83
2022-09-29T02:44:59.684Z,1.55
2022-09-29T02:47:47.108Z,1.60
2022-09-29T02:50:40.073Z,1.38
2022-09-29T02:53:19.492Z,1.70
2022-09-29T02:55:54.955Z,1.40
2022-09-29T02:58:29.872Z,1.42
2022-09-29T03:00:59.648Z,1.65
2022-09-29T03:03:27.637Z,1.20
2022-09-29T03:05:57.141Z,1.55
2022-09-29T03:08:25.527Z,1.33
2022-09-29T03:10:53.475Z,1.65
2022-09-29T03:13:21.331Z,1.40
2022-09-29T03:15:49.197Z,1.42
2022-09-29T03:18:17.073Z,1.55
2022-09-29T03:20:45.046Z,1.50
2022-09-29T03:23:14.244Z,1.50
2022-09-29T03:25:43.062Z,1.67
2022-09-29T03:28:10.923Z,1.55
2022-09-29T03:30:38.793Z,1.75
2022-09-29T03:33:06.625Z,1.73
2022-09-29T03:35:34.644Z,1.60
2022-09-29T03:38:02.517Z,1.40
2022-09-29T03:40:31.790Z,1.40
2022-09-29T03:42:59.667Z,1.30
2022-09-29T03:45:27.662Z,1.63
2022-09-29T03:47:55.524Z,1.55
2022-09-29T03:50:23.372Z,1.63
2022-09-29T03:52:51.210Z,1.50
2022-09-29T03:55:19.111Z,1.67
2022-09-29T03:57:48.368Z,1.38
2022-09-29T04:00:16.929Z,1.60
2022-09-29T04:02:44.799Z,1.75
2022-09-29T04:05:12.850Z,1.90
2022-09-29T04:07:40.718Z,1.60
2022-09-29T04:10:09.247Z,1.67
2022-09-29T04:12:37.095Z,1.40
2022-09-29T04:15:07.635Z,1.42
2022-09-29T04:17:35.499Z,1.70
2022-09-29T04:20:03.355Z,1.40
2022-09-29T04:22:31.274Z,1.52
2022-09-29T04:24:59.711Z,1.67
2022-09-29T04:27:27.560Z,1.35
2022-09-29T04:29:55.403Z,1.23
2022-09-29T04:32:25.231Z,1.40
2022-09-29T04:34:53.095Z,1.30
2022-09-29T04:37:21.047Z,1.55
2022-09-29T04:39:48.977Z,1.67
2022-09-29T04:42:16.803Z,1.60
2022-09-29T04:44:44.703Z,1.80
2022-09-29T04:47:12.708Z,1.60
2022-09-29T04:49:42.088Z,1.60
2022-09-29T04:52:12.079Z,1.60
2022-09-29T04:54:40.183Z,1.60
2022-09-29T04:57:09.915Z,1.38
2022-09-29T04:59:37.857Z,2.03
2022-09-29T05:02:05.854Z,1.55
2022-09-29T05:04:33.793Z,1.60
2022-09-29T05:07:03.064Z,1.60
2022-09-29T05:09:33.530Z,1.38
2022-09-29T05:12:02.287Z,1.33
2022-09-29T05:14:30.284Z,1.70
2022-09-29T05:16:59.341Z,1.30
2022-09-29T05:19:27.233Z,1.30
2022-09-29T05:21:55.080Z,1.55
2022-09-29T05:24:24.420Z,1.52
2022-09-29T05:26:57.539Z,1.33
2022-09-29T05:29:26.578Z,1.20
2022-09-29T05:31:54.655Z,1.50
2022-09-29T05:34:22.984Z,1.50
2022-09-29T05:36:51.078Z,1.30
2022-09-29T05:39:20.987Z,1.33
2022-09-29T05:41:50.902Z,1.40
2022-09-29T05:44:19.068Z,1.45
2022-09-29T05:46:46.989Z,1.13
2022-09-29T05:49:14.991Z,1.58
2022-09-29T05:51:42.916Z,1.30
2022-09-29T05:54:10.802Z,1.40
2022-09-29T05:56:43.028Z,1.30
2022-09-29T05:59:15.173Z,1.20
2022-09-29T06:01:43.399Z,1.20
2022-09-29T06:04:11.371Z,1.33
2022-09-29T06:06:40.315Z,1.30
2022-09-29T06:09:08.408Z,1.10
2022-09-29T06:11:36.367Z,1.23
2022-09-29T06:14:04.547Z,1.40
2022-09-29T06:16:35.347Z,1.17
2022-09-29T06:19:05.674Z,1.23
2022-09-29T06:21:35.387Z,1.20
2022-09-29T06:24:03.337Z,1.17
2022-09-29T06:26:31.453Z,1.00
2022-09-29T06:28:59.633Z,1.40
2022-09-29T06:31:29.270Z,1.10
2022-09-29T06:34:00.250Z,1.60
2022-09-29T06:36:49.922Z,1.08
2022-09-29T06:39:18.569Z,1.10
2022-09-29T06:41:52.164Z,1.05
2022-09-29T06:44:20.853Z,1.30
2022-09-29T06:46:50.477Z,1.02
2022-09-29T06:49:20.648Z,1.17
2022-09-29T06:51:48.783Z,1.13
2022-09-29T06:54:18.340Z,1.20
2022-09-29T06:56:48.449Z,1.02
2022-09-29T06:59:16.632Z,1.30
2022-09-29T07:01:45.309Z,1.23
2022-09-29T07:04:13.357Z,1.38
2022-09-29T07:06:43.013Z,0.93
2022-09-29T07:09:15.844Z,1.00
2022-09-29T07:11:46.611Z,1.05
2022-09-29T07:14:14.726Z,1.23
2022-09-29T07:16:42.777Z,1.00
2022-09-29T07:19:11.200Z,1.00
2022-09-29T07:21:39.177Z,0.90
2022-09-29T07:24:09.900Z,1.02
2022-09-29T07:26:38.069Z,1.00
2022-09-29T07:29:07.230Z,0.80
2022-09-29T07:31:48.528Z,0.93
2022-09-29T07:34:18.602Z,1.13
2022-09-29T07:36:46.469Z,0.85
2022-09-29T07:39:15.818Z,0.90
2022-09-29T07:41:43.840Z,1.00
2022-09-29T07:44:11.956Z,1.02
2022-09-29T07:46:39.809Z,0.90
2022-09-29T07:49:07.924Z,1.27
2022-09-29T07:51:35.814Z,0.82
2022-09-29T07:54:04.755Z,0.85
2022-09-29T07:56:35.427Z,1.00
2022-09-29T07:59:04.269Z,1.25
2022-09-29T08:01:32.917Z,0.93
2022-09-29T08:04:02.167Z,1.27
2022-09-29T08:06:30.212Z,0.90
2022-09-29T08:09:04.271Z,1.38
2022-09-29T08:11:35.342Z,0.88
2022-09-29T08:14:03.511Z,0.70
2022-09-29T08:16:32.583Z,1.25
2022-09-29T08:19:00.813Z,1.08
2022-09-29T08:21:29.843Z,0.95
2022-09-29T08:23:57.761Z,0.80
2022-09-29T08:26:38.054Z,0.82
2022-09-29T08:29:14.370Z,0.85
2022-09-29T08:31:44.584Z,0.80
2022-09-29T08:34:13.634Z,0.80
2022-09-29T08:36:41.982Z,0.80
2022-09-29T08:39:11.808Z,1.13
2022-09-29T08:41:50.822Z,0.75
2022-09-29T08:44:36.923Z,1.10
2022-09-29T08:47:15.440Z,0.80
2022-09-29T08:49:48.000Z,0.90
2022-09-29T08:52:20.281Z,1.00
2022-09-29T08:54:50.635Z,1.15
2022-09-29T08:57:20.641Z,0.95
2022-09-29T08:59:55.833Z,0.80
2022-09-29T09:03:03.349Z,0.98
2022-09-29T09:06:06.595Z,1.15
2022-09-29T09:08:50.997Z,1.02
2022-09-29T09:11:34.424Z,0.95
2022-09-29T09:14:15.797Z,1.13
2022-09-29T09:16:55.384Z,0.93
2022-09-29T09:19:41.692Z,0.90
2022-09-29T09:22:21.641Z,1.10
2022-09-29T09:24:56.225Z,1.10
2022-09-29T09:27:27.305Z,0.80
2022-09-29T09:30:04.795Z,0.93
2022-09-29T09:32:40.669Z,0.93
2022-09-29T09:35:26.427Z,0.98
2022-09-29T09:37:56.576Z,1.00
2022-09-29T09:40:27.616Z,0.93
2022-09-29T09:43:06.765Z,0.93
2022-09-29T09:45:38.893Z,1.27
2022-09-29T09:48:13.837Z,0.90
2022-09-29T09:50:43.952Z,1.10
2022-09-29T09:53:17.021Z,1.10
2022-09-29T09:55:45.706Z,1.10
2022-09-29T09:58:29.980Z,1.00
2022-09-29T10:01:01.408Z,1.00
2022-09-29T10:03:31.586Z,1.25
2022-09-29T10:06:00.639Z,1.00
2022-09-29T10:08:30.617Z,1.25
2022-09-29T10:11:00.281Z,1.00
2022-09-29T10:13:30.596Z,1.20
2022-09-29T10:16:01.045Z,0.93
2022-09-29T10:18:38.499Z,0.90
2022-09-29T10:21:21.637Z,1.20
2022-09-29T10:23:52.961Z,0.98
2022-09-29T10:26:25.946Z,0.98
2022-09-29T10:28:56.987Z,1.20
2022-09-29T10:31:27.913Z,0.90
2022-09-29T10:34:04.190Z,0.80
2022-09-29T10:36:35.513Z,1.00
2022-09-29T10:39:03.845Z,0.85
2022-09-29T10:41:53.936Z,1.02
2022-09-29T10:44:23.000Z,1.30
2022-09-29T10:46:54.029Z,0.90
2022-09-29T10:49:25.103Z,0.95
2022-09-29T10:51:57.489Z,1.00
2022-09-29T10:54:27.247Z,0.90
2022-09-29T10:56:57.980Z,1.10
2022-09-29T10:59:27.392Z,0.90
2022-09-29T11:02:00.120Z,0.70
2022-09-29T11:04:33.856Z,0.75
2022-09-29T11:07:08.569Z,0.90
2022-09-29T11:09:41.320Z,0.77
2022-09-29T11:12:28.469Z,0.80
2022-09-29T11:14:56.689Z,1.33
2022-09-29T11:17:27.671Z,0.70
2022-09-29T11:20:00.449Z,0.63
2022-09-29T11:23:00.879Z,0.70
2022-09-29T11:25:46.597Z,0.70
2022-09-29T11:28:40.705Z,0.68
2022-09-29T11:31:23.723Z,0.80
2022-09-29T11:34:03.380Z,1.10
2022-09-29T11:36:43.002Z,1.23
2022-09-29T11:39:22.625Z,1.20
2022-09-29T11:42:01.306Z,0.70
2022-09-29T11:44:45.118Z,0.60
2022-09-29T11:47:27.399Z,0.80
2022-09-29T11:50:30.781Z,0.70
2022-09-29T11:53:31.741Z,0.90
2022-09-29T11:56:17.761Z,0.90
2022-09-29T11:58:56.700Z,1.00
2022-09-29T12:01:35.995Z,1.02
2022-09-29T12:04:18.641Z,0.88
2022-09-29T12:06:55.159Z,0.90
2022-09-29T12:09:45.859Z,0.90
2022-09-29T12:12:24.919Z,0.98
2022-09-29T12:15:17.473Z,0.80
2022-09-29T12:17:49.561Z,0.70
2022-09-29T12:20:24.066Z,0.82
2022-09-29T12:22:54.621Z,0.80
2022-09-29T12:25:27.934Z,0.80
2022-09-29T12:28:01.719Z,0.80
2022-09-29T12:30:32.612Z,0.70
2022-09-29T12:33:07.030Z,0.60
2022-09-29T12:35:40.124Z,0.45
2022-09-29T12:38:18.534Z,0.65
2022-09-29T12:40:54.449Z,0.57
2022-09-29T12:43:28.362Z,0.57
2022-09-29T12:46:01.895Z,0.60
2022-09-29T12:48:40.342Z,0.65
2022-09-29T12:51:14.706Z,0.52
2022-09-29T12:53:53.491Z,0.90
2022-09-29T12:56:27.234Z,0.65
2022-09-29T12:59:02.977Z,0.80
2022-09-29T13:01:33.684Z,0.50
2022-09-29T13:04:41.084Z,0.77
2022-09-29T13:07:40.902Z,0.77
2022-09-29T13:10:24.105Z,0.80
2022-09-29T13:13:14.131Z,0.95
2022-09-29T13:15:56.950Z,0.70
2022-09-29T13:18:59.675Z,0.75
2022-09-29T13:21:38.158Z,0.60
2022-09-29T13:24:28.160Z,0.73
2022-09-29T13:27:18.276Z,0.80
2022-09-29T13:29:50.368Z,0.82
2022-09-29T13:32:19.051Z,0.60
2022-09-29T13:34:55.340Z,0.63
2022-09-29T13:37:26.127Z,0.60
2022-09-29T13:40:02.553Z,0.40
2022-09-29T13:42:44.853Z,0.50
2022-09-29T13:45:48.214Z,0.80
2022-09-29T13:48:51.176Z,0.70
2022-09-29T13:51:45.457Z,0.75
2022-09-29T13:54:36.517Z,0.60
2022-09-29T13:57:28.820Z,0.90
2022-09-29T14:00:18.867Z,0.90
2022-09-29T14:02:52.315Z,0.88
2022-09-29T14:06:36.174Z,0.80
2022-09-29T14:09:03.855Z,0.82
2022-09-29T14:11:35.872Z,0.52
2022-09-29T14:14:07.029Z,0.60
2022-09-29T14:16:53.436Z,0.50
2022-09-29T14:19:43.020Z,0.60
2022-09-29T14:22:46.706Z,0.60
2022-09-29T14:25:56.545Z,0.50
2022-09-29T14:28:34.240Z,0.60
2022-09-29T14:31:04.366Z,0.60
2022-09-29T14:33:38.916Z,0.57
2022-09-29T14:36:10.923Z,0.60
2022-09-29T14:38:42.641Z,0.50
2022-09-29T14:41:27.692Z,0.60
2022-09-29T14:43:58.885Z,0.70
2022-09-29T14:47:11.259Z,0.60
2022-09-29T14:50:19.670Z,0.50
2022-09-29T14:53:06.199Z,0.60
2022-09-29T14:55:47.512Z,0.52
2022-09-29T14:58:32.452Z,0.57
2022-09-29T15:01:09.410Z,0.45
2022-09-29T15:03:45.263Z,0.60
2022-09-29T15:06:16.045Z,0.98
2022-09-29T15:08:53.574Z,0.57
2022-09-29T15:11:45.408Z,0.68
2022-09-29T15:14:30.237Z,0.70
2022-09-29T15:17:14.782Z,0.60
2022-09-29T15:19:55.820Z,0.63
2022-09-29T15:22:58.998Z,0.60
2022-09-29T15:25:30.508Z,0.70
2022-09-29T15:28:02.477Z,0.70
2022-09-29T15:30:33.184Z,0.77
2022-09-29T15:35:52.590Z,0.60
2022-09-29T15:38:37.545Z,0.73
2022-09-29T15:41:16.623Z,0.60
2022-09-29T15:43:53.835Z,0.70
2022-09-29T15:46:25.149Z,0.80
2022-09-29T15:49:08.660Z,0.90
2022-09-29T15:51:37.104Z,1.10
2022-09-29T15:54:10.318Z,1.10
2022-09-29T15:56:59.432Z,0.77
2022-09-29T15:59:51.602Z,1.00
2022-09-29T16:02:30.361Z,0.85
2022-09-29T16:05:01.857Z,0.70
2022-09-29T16:07:32.731Z,0.88
2022-09-29T16:10:09.604Z,0.65
2022-09-29T16:12:46.765Z,0.77
2022-09-29T16:15:22.015Z,0.80
2022-09-29T16:17:51.937Z,0.82
2022-09-29T16:20:26.936Z,0.68
2022-09-29T16:22:55.382Z,0.70
2022-09-29T16:25:27.695Z,0.95
2022-09-29T16:27:57.332Z,0.80
2022-09-29T16:30:27.712Z,0.80
2022-09-29T16:33:03.885Z,0.85
2022-09-29T16:35:40.210Z,1.00
2022-09-29T16:38:34.660Z,0.88
2022-09-29T16:41:21.578Z,0.80
2022-09-29T16:43:49.981Z,0.70
2022-09-29T16:46:20.922Z,0.90
2022-09-29T16:48:51.699Z,0.75
2022-09-29T16:51:38.172Z,0.90
2022-09-29T16:54:07.129Z,1.10
2022-09-29T16:56:36.074Z,1.20
2022-09-29T16:59:11.443Z,1.10
2022-09-29T17:01:41.172Z,0.88
2022-09-29T17:04:11.666Z,1.10
2022-09-29T17:06:42.621Z,1.30
2022-09-29T17:09:17.373Z,1.20
2022-09-29T17:11:48.533Z,1.00
2022-09-29T17:14:18.513Z,1.17
2022-09-29T17:16:46.778Z,1.20
2022-09-29T17:19:17.135Z,1.30
2022-09-29T17:21:45.473Z,1.20
2022-09-29T17:24:13.330Z,1.30
2022-09-29T17:27:00.974Z,1.05
2022-09-29T17:29:29.362Z,1.00
2022-09-29T17:31:57.285Z,1.20
2022-09-29T17:34:29.244Z,1.30
2022-09-29T17:37:00.354Z,0.90
2022-09-29T17:39:28.993Z,0.90
2022-09-29T17:41:56.897Z,1.13
2022-09-29T17:44:25.214Z,1.20
2022-09-29T17:46:57.451Z,0.90
2022-09-29T17:49:40.394Z,1.10
2022-09-29T17:52:10.280Z,1.00
2022-09-29T17:54:39.293Z,0.90
2022-09-29T17:57:08.048Z,2.58
2022-09-29T17:59:40.469Z,1.90
2022-09-29T18:02:12.961Z,1.60
2022-09-29T18:04:43.545Z,1.15
2022-09-29T18:07:12.644Z,1.40
2022-09-29T18:09:42.456Z,1.40
2022-09-29T18:12:10.658Z,1.40
2022-09-29T18:14:38.585Z,1.40
2022-09-29T18:17:06.573Z,1.40
2022-09-29T18:19:40.268Z,1.40
2022-09-29T18:22:09.673Z,1.13
2022-09-29T18:24:37.810Z,1.52
2022-09-29T18:27:05.737Z,1.30
2022-09-29T18:29:33.674Z,1.63
2022-09-29T18:32:01.981Z,1.58
2022-09-29T18:34:33.510Z,1.23
2022-09-29T18:37:01.398Z,1.40
2022-09-29T18:39:30.680Z,1.30
2022-09-29T18:41:59.414Z,1.27
2022-09-29T18:44:30.058Z,1.20
2022-09-29T18:46:58.099Z,1.40
2022-09-29T18:49:26.283Z,1.15
2022-09-29T18:51:54.383Z,1.40
2022-09-29T18:54:22.500Z,1.20
2022-09-29T18:56:54.696Z,1.25
2022-09-29T18:59:22.970Z,1.25
2022-09-29T19:01:52.611Z,1.15
2022-09-29T19:04:21.295Z,1.33
2022-09-29T19:06:49.542Z,1.17
2022-09-29T19:09:17.834Z,1.40
2022-09-29T19:11:46.720Z,1.20
2022-09-29T19:14:16.158Z,1.35
2022-09-29T19:16:44.520Z,1.17
2022-09-29T19:19:12.606Z,1.40
2022-09-29T19:21:42.542Z,1.42
2022-09-29T19:24:11.278Z,1.30
2022-09-29T19:26:40.091Z,1.08
2022-09-29T19:29:08.221Z,1.08
2022-09-29T19:31:38.808Z,0.95
2022-09-29T19:34:06.760Z,1.02
2022-09-29T19:36:37.277Z,1.00
2022-09-29T19:39:05.925Z,1.08
2022-09-29T19:41:34.152Z,0.77
2022-09-29T19:44:02.401Z,0.90
2022-09-29T19:46:30.372Z,0.93
2022-09-29T19:48:59.684Z,0.80
2022-09-29T19:51:47.504Z,1.08
2022-09-29T19:54:18.886Z,0.90
2022-09-29T19:56:49.550Z,1.00
2022-09-29T19:59:20.162Z,1.80
2022-09-29T20:01:50.297Z,2.22
2022-09-29T20:04:24.549Z,1.52
2022-09-29T20:06:55.344Z,1.25
2022-09-29T20:09:23.833Z,0.98
2022-09-29T20:11:52.491Z,1.05
2022-09-29T20:14:23.294Z,0.90
2022-09-29T20:16:53.529Z,1.00
2022-09-29T20:19:24.151Z,0.85
2022-09-29T20:21:53.898Z,0.80
2022-09-29T20:24:24.128Z,1.13
2022-09-29T20:26:55.502Z,1.20
2022-09-29T20:29:23.581Z,0.98
2022-09-29T20:31:52.034Z,0.80
2022-09-29T20:34:21.025Z,0.88
2022-09-29T20:36:54.414Z,0.85
2022-09-29T20:39:25.232Z,1.08
2022-09-29T20:41:54.379Z,0.82
2022-09-29T20:44:25.702Z,0.75
2022-09-29T20:46:54.486Z,1.10
2022-09-29T20:49:22.561Z,0.80
2022-09-29T20:51:52.608Z,0.90
2022-09-29T20:54:21.309Z,0.73
2022-09-29T20:56:51.002Z,0.77
2022-09-29T20:59:21.171Z,0.60
2022-09-29T21:01:49.772Z,0.85
2022-09-29T21:04:19.525Z,0.80
2022-09-29T21:06:50.544Z,0.73
2022-09-29T21:09:22.223Z,0.90
2022-09-29T21:11:50.342Z,0.68
2022-09-29T21:14:20.178Z,0.90
2022-09-29T21:16:51.306Z,1.10
2022-09-29T21:19:25.949Z,0.60
2022-09-29T21:21:54.406Z,0.60
2022-09-29T21:24:24.059Z,0.55
2022-09-29T21:26:52.152Z,0.70
2022-09-29T21:29:20.848Z,0.73
2022-09-29T21:31:49.258Z,0.70
2022-09-29T21:34:17.620Z,0.60
2022-09-29T21:36:45.601Z,0.88
2022-09-29T21:39:14.664Z,0.70
2022-09-29T21:41:45.442Z,0.90
2022-09-29T21:44:15.649Z,0.73
2022-09-29T21:46:44.278Z,0.90
2022-09-29T21:49:13.670Z,0.63
2022-09-29T21:51:43.620Z,1.15
2022-09-29T21:54:14.648Z,0.55
2022-09-29T21:56:46.122Z,0.70
2022-09-29T21:59:15.757Z,0.90
2022-09-29T22:01:45.155Z,0.90
2022-09-29T22:04:13.908Z,0.70
2022-09-29T22:06:44.679Z,0.60
2022-09-29T22:09:15.598Z,0.65
2022-09-29T22:11:44.925Z,0.85
2022-09-29T22:14:15.944Z,0.77
2022-09-29T22:16:44.489Z,0.88
2022-09-29T22:19:28.696Z,0.80
2022-09-29T22:21:56.952Z,1.00
2022-09-29T22:24:26.677Z,0.80
2022-09-29T22:26:56.274Z,0.75
2022-09-29T22:29:24.362Z,0.80
2022-09-29T22:31:52.690Z,0.70
2022-09-29T22:34:20.665Z,0.75
2022-09-29T22:36:48.769Z,0.80
2022-09-29T22:39:16.644Z,0.73
2022-09-29T22:41:44.543Z,0.52
2022-09-29T22:44:13.814Z,1.00
2022-09-29T22:46:41.708Z,0.60
2022-09-29T22:49:09.696Z,0.80
2022-09-29T22:51:37.560Z,0.93
2022-09-29T22:54:05.672Z,0.70
2022-09-29T22:56:33.601Z,0.90
2022-09-29T22:59:03.010Z,0.77
2022-09-29T23:01:33.707Z,0.80
2022-09-29T23:04:03.919Z,0.70
2022-09-29T23:06:32.202Z,0.60
2022-09-29T23:09:00.307Z,0.68
2022-09-29T23:11:28.564Z,0.88
2022-09-29T23:13:56.645Z,1.05
2022-09-29T23:16:24.798Z,0.90
2022-09-29T23:18:56.117Z,0.70
2022-09-29T23:21:24.815Z,0.75
2022-09-29T23:23:55.606Z,0.93
2022-09-29T23:26:23.776Z,0.77
2022-09-29T23:28:51.931Z,0.90
2022-09-29T23:31:20.353Z,0.75
2022-09-29T23:33:53.201Z,0.77
2022-09-29T23:36:24.076Z,0.80
2022-09-29T23:39:09.629Z,1.10
2022-09-29T23:41:39.624Z,0.88
2022-09-29T23:44:07.836Z,0.73
2022-09-29T23:46:38.130Z,0.73
2022-09-29T23:49:18.685Z,0.60
2022-09-29T23:51:50.129Z,0.80
2022-09-29T23:54:20.113Z,0.90
2022-09-29T23:56:49.325Z,0.80
2022-09-29T23:59:17.744Z,0.70
